Time;durP1;ratioP1;P1;durP2;ratioP2;P2;SDS_P1;SDS_P2;PMS_P1;PMS_P2;Temp;Humidity;BMP_temperature;BMP_pressure;BME280_temperature;BME280_humidity;BME280_pressure;Samples;Min_cycle;Max_cycle;Signal;HPM_P1;HPM_P2
2023/09/29 00:00:51;;;;;;;4.55;2.92;;;;;;;26.12;48.37;99807.94;5094958;28;20422;-75
2023/09/29 00:03:17;;;;;;;5.32;2.53;;;;;;;26.12;48.14;99801.72;5094643;28;20040;-74
2023/09/29 00:05:46;;;;;;;4.05;2.55;;;;;;;26.10;48.27;99799.16;5094785;28;20024;-75
2023/09/29 00:08:17;;;;;;;4.32;2.65;;;;;;;26.10;48.33;99801.00;5094408;28;20032;-74
2023/09/29 00:10:45;;;;;;;5.63;3.10;;;;;;;26.10;48.08;99806.34;5094774;28;20020;-76
2023/09/29 00:13:10;;;;;;;5.68;2.97;;;;;;;26.10;48.63;99814.38;5094007;28;20016;-74
2023/09/29 00:15:36;;;;;;;3.70;2.45;;;;;;;26.08;48.56;99801.09;5094677;28;20020;-75
2023/09/29 00:18:01;;;;;;;4.68;2.55;;;;;;;26.09;48.31;99807.28;5094945;28;20024;-75
2023/09/29 00:20:27;;;;;;;5.35;2.92;;;;;;;26.09;48.50;99802.81;5094637;28;20101;-75
2023/09/29 00:22:59;;;;;;;4.18;2.78;;;;;;;26.08;48.38;99809.13;5094330;28;20024;-75
2023/09/29 00:25:25;;;;;;;4.57;2.83;;;;;;;26.09;48.55;99812.63;5074453;28;20024;-74
2023/09/29 00:27:52;;;;;;;3.83;2.85;;;;;;;26.08;48.72;99810.94;5080565;28;20040;-75
2023/09/29 00:30:17;;;;;;;4.18;2.75;;;;;;;26.07;48.64;99809.25;5094483;28;20518;-75
2023/09/29 00:32:50;;;;;;;5.25;3.10;;;;;;;26.07;48.37;99809.25;5093032;28;20041;-75
2023/09/29 00:37:48;;;;;;;4.93;3.00;;;;;;;26.04;48.71;99809.50;5093772;28;20066;-75
2023/09/29 00:40:14;;;;;;;4.68;2.83;;;;;;;26.04;48.67;99804.16;5094226;28;20107;-75
2023/09/29 00:42:42;;;;;;;4.85;2.97;;;;;;;26.04;48.56;99809.50;5094472;28;20452;-75
2023/09/29 00:45:08;;;;;;;4.97;3.10;;;;;;;26.03;48.29;99807.75;5092709;28;20065;-75
2023/09/29 00:47:36;;;;;;;4.13;2.80;;;;;;;26.02;48.50;99804.25;5093889;28;20438;-75
2023/09/29 00:50:04;;;;;;;4.35;2.83;;;;;;;26.02;48.79;99806.94;5094225;28;20027;-75
2023/09/29 00:52:30;;;;;;;4.95;3.10;;;;;;;25.99;48.83;99802.66;5093568;28;20024;-74
2023/09/29 00:54:56;;;;;;;4.75;3.13;;;;;;;25.99;48.79;99808.00;5094079;28;20073;-75
2023/09/29 00:57:21;;;;;;;4.90;3.17;;;;;;;25.97;48.89;99799.28;5094027;28;20016;-75
2023/09/29 00:59:51;;;;;;;5.85;3.53;;;;;;;25.95;48.67;99805.72;5093963;28;20024;-75
2023/09/29 01:02:17;;;;;;;4.85;3.28;;;;;;;25.97;48.75;99804.63;5093618;28;20023;-74
2023/09/29 01:04:44;;;;;;;5.40;3.35;;;;;;;25.96;48.62;99808.25;5097748;28;20031;-74
2023/09/29 01:07:11;;;;;;;5.35;3.40;;;;;;;25.95;48.57;99806.53;5113630;28;20019;-75
2023/09/29 01:09:37;;;;;;;5.82;3.33;;;;;;;25.95;48.94;99795.00;5114106;28;20027;-75
2023/09/29 01:12:08;;;;;;;5.00;3.40;;;;;;;25.93;49.11;99808.50;5114029;28;20019;-75
2023/09/29 01:14:34;;;;;;;5.90;3.53;;;;;;;25.92;49.00;99801.44;5100662;28;20024;-76
2023/09/29 01:16:59;;;;;;;5.30;3.47;;;;;;;25.92;48.94;99806.78;5093409;28;20118;-74
2023/09/29 01:19:25;;;;;;;5.18;3.67;;;;;;;25.90;48.98;99802.53;5093370;28;20020;-75
2023/09/29 01:21:51;;;;;;;5.63;3.72;;;;;;;25.90;49.01;99808.72;5093070;28;20035;-75
2023/09/29 01:24:16;;;;;;;6.38;3.85;;;;;;;25.90;48.79;99807.88;5093431;28;20054;-74
2023/09/29 01:26:44;;;;;;;5.70;3.50;;;;;;;25.89;48.78;99804.34;5091431;28;20463;-75
2023/09/29 01:29:10;;;;;;;5.20;3.58;;;;;;;25.89;49.10;99807.00;5093044;28;20062;-75
2023/09/29 01:31:37;;;;;;;5.68;4.20;;;;;;;25.88;48.99;99805.31;5093165;28;20028;-74
2023/09/29 01:34:04;;;;;;;5.35;4.35;;;;;;;25.87;49.25;99806.28;5093209;28;20096;-75
2023/09/29 01:36:34;;;;;;;5.80;4.18;;;;;;;25.86;49.07;99801.91;5092627;28;20035;-75
2023/09/29 01:39:00;;;;;;;6.38;4.10;;;;;;;25.86;49.22;99812.59;5092945;28;20377;-75
2023/09/29 01:41:25;;;;;;;6.07;4.18;;;;;;;25.86;49.30;99812.59;5092866;28;20020;-75
2023/09/29 01:43:52;;;;;;;5.35;4.00;;;;;;;25.85;49.30;99816.22;5093086;28;20035;-75
2023/09/29 01:46:17;;;;;;;6.50;4.57;;;;;;;25.85;49.13;99810.88;5092929;28;20028;-76
2023/09/29 01:48:43;;;;;;;6.18;4.55;;;;;;;25.84;49.11;99819.88;5092930;28;20092;-75
2023/09/29 01:51:08;;;;;;;6.35;4.75;;;;;;;25.83;49.45;99818.19;5092602;28;20478;-75
2023/09/29 01:53:34;;;;;;;6.18;4.53;;;;;;;25.81;49.39;99817.44;5093029;28;20106;-75
2023/09/29 01:55:59;;;;;;;6.30;4.63;;;;;;;25.80;49.45;99824.59;5092799;28;20032;-74
2023/09/29 01:58:27;;;;;;;6.32;4.40;;;;;;;25.81;49.41;99825.47;5092734;28;20035;-75
2023/09/29 02:00:53;;;;;;;6.72;4.97;;;;;;;25.81;49.53;99820.13;5092658;28;20034;-75
2023/09/29 02:03:18;;;;;;;5.72;4.15;;;;;;;25.80;49.54;99823.78;5092599;28;20419;-75
2023/09/29 02:05:44;;;;;;;7.40;5.07;;;;;;;25.79;49.44;99822.91;5092467;28;20040;-75
2023/09/29 02:08:10;;;;;;;6.57;4.95;;;;;;;25.78;49.35;99825.69;5092459;28;20031;-74
2023/09/29 02:10:36;;;;;;;6.55;4.82;;;;;;;25.77;49.29;99829.34;5092586;28;20408;-75
2023/09/29 02:13:07;;;;;;;6.45;4.90;;;;;;;25.76;49.42;99830.31;5092530;28;20038;-75
2023/09/29 02:15:36;;;;;;;5.75;4.55;;;;;;;25.76;49.49;99819.63;5092355;28;20103;-75
2023/09/29 02:18:05;;;;;;;7.28;5.10;;;;;;;25.75;49.59;99821.44;5092558;28;20027;-75
2023/09/29 02:20:31;;;;;;;7.07;5.10;;;;;;;25.76;49.48;99824.97;5091459;28;20024;-74
2023/09/29 02:22:58;;;;;;;6.55;4.68;;;;;;;25.74;49.81;99827.75;5092580;28;20488;-74
2023/09/29 02:25:26;;;;;;;6.70;5.03;;;;;;;25.73;49.51;99824.22;5092226;28;20020;-75
2023/09/29 02:27:54;;;;;;;6.50;4.75;;;;;;;25.72;49.41;99822.50;5092273;28;20503;-74
2023/09/29 02:30:19;;;;;;;6.40;4.95;;;;;;;25.72;49.50;99833.19;5092253;28;20024;-75
2023/09/29 02:32:45;;;;;;;6.10;4.50;;;;;;;25.71;49.79;99828.81;5092438;28;20035;-75
2023/09/29 02:35:10;;;;;;;6.80;5.07;;;;;;;25.71;50.02;99836.00;5091914;28;20040;-75
2023/09/29 02:37:37;;;;;;;7.22;5.10;;;;;;;25.70;49.81;99835.16;5091241;28;20510;-75
2023/09/29 02:40:15;;;;;;;6.85;5.10;;;;;;;25.71;49.33;99836.84;5091983;28;20030;-75
2023/09/29 02:42:41;;;;;;;8.23;5.20;;;;;;;25.69;49.63;99837.94;5072091;28;20031;-74
2023/09/29 02:45:07;;;;;;;6.75;4.85;;;;;;;25.68;49.60;99842.44;5071957;28;20017;-75
2023/09/29 02:47:35;;;;;;;7.15;4.80;;;;;;;25.68;49.75;99847.78;5071600;28;20028;-74
2023/09/29 02:50:00;;;;;;;7.15;4.75;;;;;;;25.68;49.56;99842.44;5071902;28;20357;-74
2023/09/29 02:52:27;;;;;;;6.28;4.97;;;;;;;25.66;49.95;99839.00;5090369;28;20085;-74
2023/09/29 02:54:54;;;;;;;7.22;5.00;;;;;;;25.66;49.52;99847.03;5092115;28;20564;-75
2023/09/29 02:57:21;;;;;;;6.95;4.65;;;;;;;25.66;49.74;99847.03;5092126;28;20118;-74
2023/09/29 02:59:47;;;;;;;6.25;4.55;;;;;;;25.65;49.75;99848.00;5092057;28;20039;-75
2023/09/29 03:02:12;;;;;;;5.85;4.72;;;;;;;25.65;49.42;99849.84;5091255;28;20483;-74
2023/09/29 03:04:39;;;;;;;7.30;4.90;;;;;;;25.65;49.76;99852.50;5090638;28;20181;-75
2023/09/29 03:07:05;;;;;;;7.07;5.53;;;;;;;25.65;49.87;99857.84;5091920;28;20555;-75
2023/09/29 03:09:33;;;;;;;5.85;4.78;;;;;;;25.62;49.83;99858.94;5097310;28;20391;-75
2023/09/29 03:12:02;;;;;;;7.00;5.00;;;;;;;25.63;50.01;99860.63;5098548;28;20532;-75
2023/09/29 03:14:27;;;;;;;6.57;5.10;;;;;;;25.62;49.98;99866.09;5091799;28;20028;-75
2023/09/29 03:17:00;;;;;;;6.53;5.05;;;;;;;25.62;49.83;99872.28;5091458;28;20031;-75
2023/09/29 03:19:30;;;;;;;6.63;5.07;;;;;;;25.62;49.83;99874.97;5091739;28;20128;-75
2023/09/29 03:21:58;;;;;;;5.68;4.57;;;;;;;25.62;50.20;99874.09;5091474;28;20028;-75
2023/09/29 03:24:26;;;;;;;7.93;4.95;;;;;;;25.60;49.80;99871.53;5091577;28;20407;-75
2023/09/29 03:26:51;;;;;;;6.05;4.32;;;;;;;25.59;49.88;99880.53;5091354;28;20088;-75
2023/09/29 03:29:18;;;;;;;6.20;4.97;;;;;;;25.58;50.23;99874.31;5091624;28;20032;-75
2023/09/29 03:35:23;;;;;;;6.82;5.38;;;;;;;25.59;50.12;99888.53;5076049;28;20071;-74
2023/09/29 03:37:49;;;;;;;6.53;4.80;;;;;;;25.58;50.21;99889.50;5076565;28;20024;-75
2023/09/29 03:40:18;;;;;;;7.93;4.80;;;;;;;25.56;49.96;99886.09;5091406;28;20024;-74
2023/09/29 03:42:43;;;;;;;7.90;5.15;;;;;;;25.56;50.08;99888.78;5091416;28;20031;-75
2023/09/29 03:45:11;;;;;;;5.72;4.88;;;;;;;25.55;49.92;99885.25;5091608;28;20024;-75
2023/09/29 03:47:37;;;;;;;6.50;4.95;;;;;;;25.54;50.21;99888.03;5091271;28;20052;-75
2023/09/29 03:50:11;;;;;;;7.65;5.25;;;;;;;25.54;50.16;99893.38;5094295;28;20028;-75
2023/09/29 03:52:37;;;;;;;6.32;5.00;;;;;;;25.52;50.12;99890.75;5095162;28;20027;-74
2023/09/29 03:55:02;;;;;;;6.07;4.68;;;;;;;25.53;50.42;99896.97;5095086;28;20023;-76
2023/09/29 03:57:28;;;;;;;6.72;4.57;;;;;;;25.52;50.24;99896.09;5095385;28;20073;-75
2023/09/29 03:59:53;;;;;;;6.57;5.38;;;;;;;25.52;50.14;99901.44;5094807;28;20545;-74
2023/09/29 04:02:20;;;;;;;6.45;5.45;;;;;;;25.52;50.46;99905.97;5094956;28;20020;-74
2023/09/29 04:04:46;;;;;;;5.13;4.38;;;;;;;25.51;50.49;99898.91;5095219;28;20110;-75
2023/09/29 04:07:11;;;;;;;6.22;4.90;;;;;;;25.51;50.12;99898.91;5095088;28;20020;-74
2023/09/29 04:09:37;;;;;;;7.22;5.75;;;;;;;25.52;50.19;99905.97;5094680;28;20107;-75
2023/09/29 04:12:02;;;;;;;5.97;4.75;;;;;;;25.51;50.20;99910.44;5093454;28;20035;-75
2023/09/29 04:14:27;;;;;;;7.13;5.20;;;;;;;25.51;50.22;99909.59;5094414;28;20028;-74
2023/09/29 04:16:54;;;;;;;6.75;5.53;;;;;;;25.50;50.21;99911.41;5094580;28;20098;-74
2023/09/29 04:19:19;;;;;;;6.80;5.13;;;;;;;25.50;50.44;99918.56;5094717;28;20484;-74
2023/09/29 04:21:45;;;;;;;7.45;5.47;;;;;;;25.49;50.43;99915.06;5094633;28;20035;-75
2023/09/29 04:24:10;;;;;;;5.70;4.68;;;;;;;25.49;50.54;99925.75;5094466;28;20089;-75
2023/09/29 04:26:36;;;;;;;6.97;5.03;;;;;;;25.50;50.11;99918.56;5094534;28;20380;-75
2023/09/29 04:29:01;;;;;;;6.20;5.13;;;;;;;25.48;50.17;99919.53;5094135;28;20031;-74
2023/09/29 04:31:27;;;;;;;7.00;5.40;;;;;;;25.48;50.53;99927.53;5094041;28;20027;-74
2023/09/29 04:33:52;;;;;;;6.72;5.03;;;;;;;25.48;50.56;99927.53;5093220;28;20038;-75
2023/09/29 04:36:17;;;;;;;6.65;5.03;;;;;;;25.48;50.32;99932.06;5093992;28;20032;-75
2023/09/29 04:38:43;;;;;;;8.13;5.15;;;;;;;25.48;50.66;99930.22;5093456;28;20143;-75
2023/09/29 04:41:09;;;;;;;6.57;5.03;;;;;;;25.47;50.33;99931.19;5093690;28;20028;-75
2023/09/29 04:43:34;;;;;;;6.45;5.03;;;;;;;25.46;50.74;99937.50;5092462;28;20499;-74
2023/09/29 04:46:00;;;;;;;6.28;5.22;;;;;;;25.47;50.40;99933.84;5094456;28;20081;-75
2023/09/29 04:48:25;;;;;;;6.43;5.00;;;;;;;25.46;50.47;99936.63;5093709;28;20027;-75
2023/09/29 04:50:50;;;;;;;7.47;5.25;;;;;;;25.47;50.54;99944.53;5093621;28;20103;-74
2023/09/29 04:53:16;;;;;;;8.63;5.53;;;;;;;25.47;50.52;99952.56;5094121;28;20038;-74
2023/09/29 04:55:41;;;;;;;6.85;4.63;;;;;;;25.48;50.40;99953.44;5094073;28;20482;-75
2023/09/29 04:58:09;;;;;;;6.70;4.93;;;;;;;25.47;50.67;99957.91;5093299;28;20024;-74
2023/09/29 05:00:35;;;;;;;6.90;5.10;;;;;;;25.48;50.52;99959.59;5092986;28;20026;-75
2023/09/29 05:03:01;;;;;;;6.60;4.80;;;;;;;25.47;50.39;99963.25;5092286;28;20252;-73
2023/09/29 05:05:26;;;;;;;7.30;5.30;;;;;;;25.45;50.83;99954.50;5093839;28;20027;-75
2023/09/29 05:07:52;;;;;;;7.25;5.25;;;;;;;25.47;50.99;99979.28;5093569;28;20028;-75
2023/09/29 05:10:19;;;;;;;6.50;4.80;;;;;;;25.47;51.38;99984.63;5093643;28;20416;-75
2023/09/29 05:12:45;;;;;;;7.53;4.90;;;;;;;25.47;51.27;99984.63;5092792;28;20112;-75
2023/09/29 05:15:11;;;;;;;8.10;4.88;;;;;;;25.47;51.26;99983.78;5094468;28;20065;-75
2023/09/29 05:17:36;;;;;;;7.40;4.40;;;;;;;25.47;51.34;99989.97;5093684;28;20553;-75
2023/09/29 05:20:02;;;;;;;7.70;4.60;;;;;;;25.47;51.71;99992.63;5093411;28;20527;-75
2023/09/29 05:22:28;;;;;;;9.50;5.05;;;;;;;25.46;51.80;99993.59;5093269;28;20111;-77
2023/09/29 05:24:53;;;;;;;9.02;5.00;;;;;;;25.45;51.85;100002.59;5093681;28;20109;-76
2023/09/29 05:27:19;;;;;;;8.63;4.70;;;;;;;25.47;51.96;100013.19;5092946;28;20024;-77
2023/09/29 05:29:45;;;;;;;8.95;4.78;;;;;;;25.47;52.02;100007.81;5093456;28;20028;-77
2023/09/29 05:32:11;;;;;;;10.98;5.50;;;;;;;25.45;52.14;100009.72;5093250;28;20107;-77
2023/09/29 05:34:36;;;;;;;11.38;4.90;;;;;;;25.45;51.82;100013.28;5093453;28;20024;-77
2023/09/29 05:37:02;;;;;;;7.95;4.40;;;;;;;25.46;51.78;100014.97;5093348;28;20020;-77
2023/09/29 05:39:28;;;;;;;8.10;5.07;;;;;;;25.46;52.11;100019.44;5093240;28;20104;-76
2023/09/29 05:41:53;;;;;;;7.60;4.65;;;;;;;25.46;52.04;100020.31;5092768;28;20066;-75
2023/09/29 05:44:18;;;;;;;8.18;4.85;;;;;;;25.44;52.23;100022.25;5093211;28;20016;-74
2023/09/29 05:46:44;;;;;;;7.82;4.40;;;;;;;25.46;52.12;100019.44;5093069;28;20024;-77
2023/09/29 05:49:10;;;;;;;7.55;4.72;;;;;;;25.46;52.17;100024.78;5093092;28;20034;-77
2023/09/29 05:51:36;;;;;;;9.13;4.55;;;;;;;25.46;52.21;100025.66;5092652;28;20111;-78
2023/09/29 05:54:03;;;;;;;8.23;4.72;;;;;;;25.47;52.24;100037.22;5092938;28;20111;-78
2023/09/29 05:56:31;;;;;;;9.30;5.07;;;;;;;25.48;52.08;100038.91;5092703;28;20031;-77
2023/09/29 05:58:57;;;;;;;12.18;5.20;;;;;;;25.49;51.91;100045.97;5092879;28;20035;-77
2023/09/29 06:01:25;;;;;;;9.82;5.10;;;;;;;25.48;52.01;100050.44;5092918;28;20032;-77
2023/09/29 06:03:50;;;;;;;9.32;5.57;;;;;;;25.50;51.96;100054.81;5092596;28;20079;-77
2023/09/29 06:06:16;;;;;;;8.90;4.95;;;;;;;25.50;51.72;100046.81;5091448;28;20111;-77
2023/09/29 06:08:43;;;;;;;8.82;4.85;;;;;;;25.50;51.90;100052.16;5092877;28;20114;-77
2023/09/29 06:11:08;;;;;;;10.75;4.90;;;;;;;25.50;51.58;100055.69;5092014;28;20032;-77
2023/09/29 06:13:34;;;;;;;8.90;5.55;;;;;;;25.51;51.91;100045.88;5092813;28;20438;-78
2023/09/29 06:15:59;;;;;;;8.38;5.38;;;;;;;25.49;52.00;100048.63;5092432;28;20028;-77
2023/09/29 06:18:26;;;;;;;9.02;5.00;;;;;;;25.48;51.55;100045.09;5092490;28;20107;-76
2023/09/29 06:20:51;;;;;;;9.10;4.80;;;;;;;25.51;51.83;100054.72;5092526;28;20036;-77
2023/09/29 06:23:17;;;;;;;9.55;5.05;;;;;;;25.51;51.46;100059.22;5092548;28;20028;-77
2023/09/29 06:25:42;;;;;;;8.43;4.63;;;;;;;25.50;51.52;100057.50;5092052;28;20484;-77
2023/09/29 06:28:08;;;;;;;9.43;4.85;;;;;;;25.51;51.57;100064.56;5092453;28;20101;-77
2023/09/29 06:30:33;;;;;;;6.55;4.63;;;;;;;25.54;51.35;100059.88;5092548;28;20024;-77
2023/09/29 06:32:58;;;;;;;10.65;4.70;;;;;;;25.53;51.44;100068.88;5092239;28;20055;-77
2023/09/29 06:35:24;;;;;;;7.88;4.75;;;;;;;25.56;51.15;100073.16;5092352;28;20074;-77
2023/09/29 06:37:51;;;;;;;7.60;4.78;;;;;;;25.55;51.24;100071.41;5092401;28;20056;-77
2023/09/29 06:40:17;;;;;;;8.02;4.63;;;;;;;25.57;51.31;100074.84;5091546;28;20030;-77
2023/09/29 06:42:42;;;;;;;8.07;4.65;;;;;;;25.58;51.47;100074.72;5092133;28;20020;-77
2023/09/29 06:45:09;;;;;;;9.60;5.05;;;;;;;25.58;51.41;100076.56;5092340;28;20039;-77
2023/09/29 06:47:35;;;;;;;9.05;4.90;;;;;;;25.58;51.40;100076.56;5092287;28;20364;-77
2023/09/29 06:50:00;;;;;;;7.57;4.70;;;;;;;25.60;51.01;100086.16;5092314;28;20039;-77
2023/09/29 06:52:26;;;;;;;9.77;4.93;;;;;;;25.61;51.19;100084.34;5092250;28;20108;-78
2023/09/29 06:54:51;;;;;;;7.53;4.97;;;;;;;25.62;51.17;100088.75;5091928;28;20039;-77
2023/09/29 06:57:17;;;;;;;7.20;4.78;;;;;;;25.60;51.25;100096.00;5091947;28;20593;-77
2023/09/29 06:59:43;;;;;;;7.25;4.20;;;;;;;25.57;51.21;100093.56;5091917;28;20463;-76
2023/09/29 07:02:08;;;;;;;8.65;5.03;;;;;;;25.58;50.97;100097.94;5092087;28;20054;-78
2023/09/29 07:04:34;;;;;;;7.97;4.40;;;;;;;25.59;51.10;100104.97;5092055;28;20042;-78
2023/09/29 07:06:59;;;;;;;8.18;4.63;;;;;;;25.59;50.90;100108.53;5091927;28;20456;-77
2023/09/29 07:09:26;;;;;;;6.63;4.72;;;;;;;25.59;50.83;100113.00;5091843;28;20089;-77
2023/09/29 07:11:51;;;;;;;7.90;3.75;;;;;;;25.58;50.99;100111.28;5091767;28;20483;-78
2023/09/29 07:14:16;;;;;;;7.40;3.97;;;;;;;25.59;51.01;100115.66;5092038;28;20056;-77
2023/09/29 07:16:43;;;;;;;7.68;4.60;;;;;;;25.60;50.95;100120.91;5091896;28;20020;-77
2023/09/29 07:19:12;;;;;;;7.40;4.10;;;;;;;25.63;50.82;100116.31;5092115;28;20032;-77
2023/09/29 07:21:38;;;;;;;8.50;4.78;;;;;;;25.61;50.97;100119.06;5091875;28;20095;-77
2023/09/29 07:24:05;;;;;;;7.65;4.25;;;;;;;25.58;50.76;100120.16;5092806;28;20032;-79
2023/09/29 07:26:31;;;;;;;7.60;4.40;;;;;;;25.60;51.08;100117.38;5095625;28;20101;-77
2023/09/29 07:29:00;;;;;;;7.80;4.22;;;;;;;25.60;51.01;100122.72;5095221;28;20487;-76
2023/09/29 07:31:36;;;;;;;8.50;4.47;;;;;;;25.59;50.98;100126.34;5095709;28;20032;-77
2023/09/29 07:34:01;;;;;;;7.97;4.57;;;;;;;25.58;50.55;100124.66;5095654;28;20063;-77
2023/09/29 07:36:30;;;;;;;7.22;4.53;;;;;;;25.58;51.07;100130.84;5095410;28;20302;-78
2023/09/29 07:38:56;;;;;;;5.75;3.78;;;;;;;25.59;50.50;100137.03;5095186;28;20020;-77
2023/09/29 07:41:21;;;;;;;7.55;4.53;;;;;;;25.58;50.95;100138.00;5095624;28;20028;-77
2023/09/29 07:43:47;;;;;;;7.03;4.25;;;;;;;25.58;50.73;100130.00;5095505;28;20027;-77
2023/09/29 07:46:13;;;;;;;7.28;4.10;;;;;;;25.56;51.00;100132.78;5095301;28;20020;-77
2023/09/29 07:48:38;;;;;;;6.75;3.80;;;;;;;25.59;50.85;100131.69;5095377;28;20024;-77
2023/09/29 07:51:04;;;;;;;7.30;4.10;;;;;;;25.61;50.68;100132.44;5095079;28;20024;-77
2023/09/29 07:53:29;;;;;;;5.82;4.10;;;;;;;25.60;50.89;100138.75;5095045;28;20027;-77
2023/09/29 07:55:55;;;;;;;7.55;4.03;;;;;;;25.59;50.51;100137.91;5094989;28;20016;-77
2023/09/29 07:58:21;;;;;;;6.00;4.15;;;;;;;25.59;50.79;100139.72;5095293;28;20161;-77
2023/09/29 08:00:46;;;;;;;9.10;4.35;;;;;;;25.61;50.80;100137.78;5095349;28;20024;-78
2023/09/29 08:03:11;;;;;;;5.68;3.88;;;;;;;25.60;50.76;100139.63;5093851;28;20556;-77
2023/09/29 08:05:37;;;;;;;7.60;4.20;;;;;;;25.62;50.56;100142.19;5094076;28;20024;-77
2023/09/29 08:08:03;;;;;;;7.43;4.20;;;;;;;25.65;50.72;100147.31;5094789;28;20078;-77
2023/09/29 08:10:28;;;;;;;6.15;3.50;;;;;;;25.65;50.59;100149.97;5094621;28;20103;-78
2023/09/29 08:12:54;;;;;;;5.47;3.53;;;;;;;25.63;50.60;100146.56;5094950;28;20468;-76
2023/09/29 08:15:21;;;;;;;6.60;3.95;;;;;;;25.63;50.44;100154.59;5094884;28;20103;-77
2023/09/29 08:17:47;;;;;;;6.85;3.85;;;;;;;25.65;50.35;100152.66;5094517;28;20047;-77
2023/09/29 08:20:14;;;;;;;5.93;3.90;;;;;;;25.63;50.58;100154.59;5094759;28;20051;-76
2023/09/29 08:22:40;;;;;;;6.40;3.95;;;;;;;25.66;50.37;100154.34;5094526;28;20481;-77
2023/09/29 08:25:07;;;;;;;6.20;3.95;;;;;;;25.64;50.94;100158.97;5094802;28;20028;-77
2023/09/29 08:27:34;;;;;;;6.47;4.00;;;;;;;25.68;50.40;100162.28;5094507;28;20480;-78
2023/09/29 08:30:01;;;;;;;5.60;3.67;;;;;;;25.65;50.78;100160.66;5094665;28;20028;-78
2023/09/29 08:32:26;;;;;;;7.75;4.15;;;;;;;25.68;50.44;100173.81;5094649;28;20077;-77
2023/09/29 08:34:52;;;;;;;6.78;4.05;;;;;;;25.67;50.60;100169.41;5094543;28;20032;-77
2023/09/29 08:37:17;;;;;;;6.10;3.60;;;;;;;25.70;50.68;100174.56;5093005;28;20024;-76
2023/09/29 08:39:43;;;;;;;5.72;3.65;;;;;;;25.70;50.49;100177.25;5094112;28;20039;-77
2023/09/29 08:42:29;;;;;;;6.28;3.70;;;;;;;25.73;50.57;100179.69;5094243;28;20498;-77
2023/09/29 08:44:58;;;;;;;6.50;3.88;;;;;;;25.71;50.32;100172.75;5094466;28;20024;-76
2023/09/29 08:47:28;;;;;;;6.47;3.78;;;;;;;25.70;50.32;100177.25;5093785;28;20081;-77
2023/09/29 08:49:56;;;;;;;7.22;4.15;;;;;;;25.71;50.67;100170.91;5093985;28;20016;-76
2023/09/29 08:52:24;;;;;;;7.15;3.90;;;;;;;25.69;50.60;100170.19;5094234;28;20016;-77
2023/09/29 08:54:50;;;;;;;5.78;4.07;;;;;;;25.72;50.64;100183.31;5093995;28;20019;-77
2023/09/29 08:57:16;;;;;;;6.88;4.13;;;;;;;25.70;50.54;100187.06;5094252;28;20020;-76
2023/09/29 08:59:43;;;;;;;5.70;3.67;;;;;;;25.71;50.77;100184.28;5094112;28;20062;-77
2023/09/29 09:02:09;;;;;;;6.18;3.67;;;;;;;25.72;50.31;100186.00;5093879;28;20028;-77
2023/09/29 09:04:34;;;;;;;6.03;4.00;;;;;;;25.76;50.50;100185.78;5093463;28;20052;-77
2023/09/29 09:07:00;;;;;;;6.63;3.67;;;;;;;25.77;50.37;100176.81;5093880;28;20023;-77
2023/09/29 09:09:25;;;;;;;6.35;3.90;;;;;;;25.77;50.39;100183.03;5096435;28;20020;-77
2023/09/29 09:11:51;;;;;;;5.85;3.60;;;;;;;25.78;50.31;100183.84;5093700;28;20024;-77
2023/09/29 09:14:16;;;;;;;6.20;3.63;;;;;;;25.79;50.29;100190.91;5093484;28;20024;-77
2023/09/29 09:16:41;;;;;;;6.03;3.97;;;;;;;25.78;50.45;100190.06;5093749;28;20483;-77
2023/09/29 09:19:14;;;;;;;5.50;3.42;;;;;;;25.81;50.14;100194.34;5093079;28;20031;-77
2023/09/29 09:21:42;;;;;;;5.97;3.83;;;;;;;25.80;50.22;100198.00;5093660;28;20028;-77
2023/09/29 09:24:21;;;;;;;6.50;4.10;;;;;;;25.82;50.40;100201.41;5093386;28;20024;-77
2023/09/29 09:26:47;;;;;;;6.65;3.40;;;;;;;25.82;50.47;100196.06;5093764;28;20020;-76
2023/09/29 09:29:17;;;;;;;5.32;3.58;;;;;;;25.81;50.50;100195.19;5093118;28;20101;-77
2023/09/29 09:31:57;;;;;;;6.82;3.75;;;;;;;25.83;50.26;100197.75;5093127;28;20554;-77
2023/09/29 09:34:33;;;;;;;5.72;3.70;;;;;;;25.84;50.39;100205.69;5092967;28;20483;-77
2023/09/29 09:36:58;;;;;;;6.35;3.67;;;;;;;25.84;50.33;100203.00;5093279;28;20523;-77
2023/09/29 09:39:24;;;;;;;6.15;3.42;;;;;;;25.85;50.53;100201.16;5093145;28;20052;-77
2023/09/29 09:41:55;;;;;;;6.25;3.75;;;;;;;25.85;50.18;100195.81;5093264;28;20091;-77
2023/09/29 09:44:21;;;;;;;6.30;3.67;;;;;;;25.86;50.19;100202.91;5093092;28;20274;-77
2023/09/29 09:46:53;;;;;;;6.30;3.97;;;;;;;25.87;50.44;100193.91;5092822;28;20024;-77
2023/09/29 09:49:28;;;;;;;6.88;3.50;;;;;;;25.87;50.38;100199.25;5092326;28;20024;-76
2023/09/29 09:51:59;;;;;;;6.50;3.92;;;;;;;25.87;50.49;100188.56;5091744;28;20028;-77
2023/09/29 09:54:30;;;;;;;4.97;3.10;;;;;;;25.87;50.66;100196.59;5092699;28;20111;-77
2023/09/29 09:57:09;;;;;;;5.57;3.13;;;;;;;25.87;50.48;100194.75;5093102;28;20024;-77
2023/09/29 09:59:36;;;;;;;6.45;3.78;;;;;;;25.87;50.65;100188.56;5091513;28;20094;-77
2023/09/29 10:02:06;;;;;;;5.10;3.40;;;;;;;25.88;50.25;100190.28;5092906;28;20028;-77
2023/09/29 10:04:34;;;;;;;5.60;3.50;;;;;;;25.89;50.59;100183.97;5092008;28;20048;-77
2023/09/29 10:07:00;;;;;;;4.95;3.22;;;;;;;25.89;50.38;100189.31;5092636;28;20016;-77
2023/09/29 10:09:26;;;;;;;5.65;3.33;;;;;;;25.90;50.34;100190.16;5091369;28;20028;-78
2023/09/29 10:12:00;;;;;;;5.28;3.40;;;;;;;25.92;50.47;100197.13;5092610;28;20111;-76
2023/09/29 10:14:27;;;;;;;6.25;3.08;;;;;;;25.92;50.50;100194.44;5092801;28;20063;-77
2023/09/29 10:17:06;;;;;;;4.88;3.30;;;;;;;25.93;50.62;100193.47;5092219;28;20476;-77
2023/09/29 10:19:37;;;;;;;5.60;3.70;;;;;;;25.93;50.55;100193.47;5092191;28;20020;-76
2023/09/29 10:22:04;;;;;;;7.65;3.22;;;;;;;25.94;50.61;100189.84;5092815;28;20133;-76
2023/09/29 10:24:30;;;;;;;5.43;3.50;;;;;;;25.96;50.35;100187.91;5092353;28;20024;-77
2023/09/29 10:27:03;;;;;;;4.88;3.20;;;;;;;25.95;50.54;100180.84;5092192;28;20043;-77
2023/09/29 10:29:32;;;;;;;6.60;3.20;;;;;;;25.96;50.64;100187.91;5092373;28;20024;-76
2023/09/29 10:32:11;;;;;;;4.80;3.17;;;;;;;25.98;50.21;100180.63;5092330;28;20031;-77
2023/09/29 10:34:39;;;;;;;6.63;3.25;;;;;;;25.98;50.71;100185.13;5092105;28;20028;-77
2023/09/29 10:37:04;;;;;;;4.47;3.00;;;;;;;26.00;50.48;100177.84;5091212;28;20020;-77
2023/09/29 10:39:30;;;;;;;6.40;3.42;;;;;;;25.99;50.48;100186.81;5092157;28;20072;-76
2023/09/29 10:42:12;;;;;;;6.45;3.20;;;;;;;26.03;50.53;100182.13;5092325;28;20020;-77
2023/09/29 10:44:55;;;;;;;5.22;2.72;;;;;;;26.04;50.42;100173.16;5092185;28;20150;-77
2023/09/29 10:47:33;;;;;;;5.50;3.58;;;;;;;26.04;50.19;100174.00;5091929;28;20024;-77
2023/09/29 10:50:06;;;;;;;6.32;3.47;;;;;;;26.04;50.56;100179.34;5092273;28;20053;-77
2023/09/29 10:52:32;;;;;;;5.50;3.40;;;;;;;26.06;50.23;100176.56;5092144;28;20499;-76
2023/09/29 10:54:59;;;;;;;5.78;3.25;;;;;;;26.07;50.54;100178.25;5092095;28;20028;-77
2023/09/29 10:57:28;;;;;;;4.68;3.00;;;;;;;26.07;50.66;100175.59;5092382;28;20043;-76
2023/09/29 10:59:59;;;;;;;5.30;3.47;;;;;;;26.08;50.21;100174.63;5093693;28;20028;-77
2023/09/29 11:02:35;;;;;;;4.95;3.08;;;;;;;26.08;50.48;100167.47;5095679;28;20047;-77
2023/09/29 11:05:04;;;;;;;4.28;2.83;;;;;;;26.10;50.42;100168.19;5095999;28;20485;-77
2023/09/29 11:07:30;;;;;;;5.32;2.83;;;;;;;26.13;50.07;100161.78;5095680;28;20040;-76
2023/09/29 11:09:59;;;;;;;4.45;2.75;;;;;;;26.15;50.25;100165.22;5095977;28;20024;-76
2023/09/29 11:12:27;;;;;;;4.72;3.05;;;;;;;26.16;50.10;100161.56;5096102;28;20024;-77
2023/09/29 11:14:53;;;;;;;5.05;3.00;;;;;;;26.18;50.17;100170.31;5095637;28;20024;-77
2023/09/29 11:17:19;;;;;;;4.97;2.80;;;;;;;26.19;50.15;100164.00;5094306;28;20040;-76
2023/09/29 11:19:52;;;;;;;4.78;2.50;;;;;;;26.20;50.23;100156.84;5094503;28;20020;-77
2023/09/29 11:22:20;;;;;;;4.57;2.57;;;;;;;26.20;50.48;100152.34;5096174;28;20017;-77
2023/09/29 11:24:48;;;;;;;6.45;2.90;;;;;;;26.22;50.47;100161.13;5095864;28;20618;-77
2023/09/29 11:27:15;;;;;;;5.80;2.78;;;;;;;26.23;50.24;100151.28;5095649;28;20078;-76
2023/09/29 11:29:43;;;;;;;4.18;2.63;;;;;;;26.23;50.26;100146.81;5095380;28;20556;-76
2023/09/29 11:32:08;;;;;;;5.20;2.60;;;;;;;26.25;50.14;100144.88;5095722;28;20043;-77
2023/09/29 11:34:34;;;;;;;5.05;2.65;;;;;;;26.25;50.11;100142.19;5095494;28;20544;-75